Terminal Aerodrome Forecast
Issued by NWS Twin Cities, MN

Home | Current Version | Previous Version | Text Only | Print | Product List | Glossary Off
Versions: 1 2 3 4 5 6 7 8 9 10 11 12 13 14 15 16 17 18 19 20 21 22 23 24 25 26

000
FTUS43 KMPX 141700
TAFMSP
TAF
KMSP 141740Z 1418/1524 28011G17KT P6SM SCT150 BKN250
     FM142300 29009KT P6SM BKN120
     FM150400 32004KT P6SM SCT050 OVC070
     FM151400 31008KT P6SM SCT050=

USA.gov is the U.S. government's official web portal to all federal, state and local government web resources and services.